sensor_id;sensor_type;location;lat;lon;timestamp;pressure;altitude;pressure_sealevel;temperature;humidity
19795;BME280;10057;59.402;17.866;2022-12-29T00:01:47;99962.28;;;1.68;83.06
19795;BME280;10057;59.402;17.866;2022-12-29T00:04:15;99964.88;;;1.69;83.18
19795;BME280;10057;59.402;17.866;2022-12-29T00:06:42;99959.59;;;1.71;82.83
19795;BME280;10057;59.402;17.866;2022-12-29T00:09:12;99963.13;;;1.70;82.72
19795;BME280;10057;59.402;17.866;2022-12-29T00:11:40;99966.59;;;1.70;82.77
19795;BME280;10057;59.402;17.866;2022-12-29T00:14:09;99968.34;;;1.71;82.93
19795;BME280;10057;59.402;17.866;2022-12-29T00:16:54;99957.88;;;1.71;83.30
19795;BME280;10057;59.402;17.866;2022-12-29T00:19:21;99964.84;;;1.72;83.18
19795;BME280;10057;59.402;17.866;2022-12-29T00:22:09;99961.31;;;1.73;82.82
19795;BME280;10057;59.402;17.866;2022-12-29T00:24:55;99958.72;;;1.73;83.22
19795;BME280;10057;59.402;17.866;2022-12-29T00:27:40;99966.56;;;1.73;83.30
19795;BME280;10057;59.402;17.866;2022-12-29T00:30:32;99970.06;;;1.72;82.81
19795;BME280;10057;59.402;17.866;2022-12-29T00:33:19;99960.50;;;1.71;82.75
19795;BME280;10057;59.402;17.866;2022-12-29T00:36:11;99956.16;;;1.69;82.92
19795;BME280;10057;59.402;17.866;2022-12-29T00:38:44;99949.22;;;1.68;82.92
19795;BME280;10057;59.402;17.866;2022-12-29T00:41:30;99945.66;;;1.70;83.33
19795;BME280;10057;59.402;17.866;2022-12-29T00:44:15;99944.81;;;1.70;83.00
19795;BME280;10057;59.402;17.866;2022-12-29T00:46:42;99932.59;;;1.70;83.08
19795;BME280;10057;59.402;17.866;2022-12-29T00:49:11;99932.59;;;1.72;82.90
19795;BME280;10057;59.402;17.866;2022-12-29T00:52:01;99932.59;;;1.72;83.32
19795;BME280;10057;59.402;17.866;2022-12-29T00:54:29;99930.88;;;1.69;83.15
19795;BME280;10057;59.402;17.866;2022-12-29T00:56:56;99928.25;;;1.69;83.34
19795;BME280;10057;59.402;17.866;2022-12-29T00:59:23;99928.31;;;1.66;83.37
19795;BME280;10057;59.402;17.866;2022-12-29T01:01:51;99930.03;;;1.67;83.17
19795;BME280;10057;59.402;17.866;2022-12-29T01:04:20;99927.41;;;1.67;83.56
19795;BME280;10057;59.402;17.866;2022-12-29T01:06:48;99925.66;;;1.69;83.30
19795;BME280;10057;59.402;17.866;2022-12-29T01:09:15;99928.25;;;1.69;83.19
19795;BME280;10057;59.402;17.866;2022-12-29T01:12:01;99925.66;;;1.69;83.22
19795;BME280;10057;59.402;17.866;2022-12-29T01:14:27;99928.25;;;1.69;83.25
19795;BME280;10057;59.402;17.866;2022-12-29T01:16:55;99914.28;;;1.70;83.65
19795;BME280;10057;59.402;17.866;2022-12-29T01:19:22;99912.56;;;1.69;83.34
19795;BME280;10057;59.402;17.866;2022-12-29T01:21:49;99909.06;;;1.72;83.16
19795;BME280;10057;59.402;17.866;2022-12-29T01:24:16;99910.78;;;1.73;83.26
19795;BME280;10057;59.402;17.866;2022-12-29T01:26:44;99911.63;;;1.73;83.88
19795;BME280;10057;59.402;17.866;2022-12-29T01:29:10;99915.09;;;1.75;83.49
19795;BME280;10057;59.402;17.866;2022-12-29T01:31:38;99909.88;;;1.75;83.64
19795;BME280;10057;59.402;17.866;2022-12-29T01:34:05;99909.84;;;1.78;83.51
19795;BME280;10057;59.402;17.866;2022-12-29T01:36:33;99897.66;;;1.76;83.22
19795;BME280;10057;59.402;17.866;2022-12-29T01:39:00;99895.00;;;1.77;83.69
19795;BME280;10057;59.402;17.866;2022-12-29T01:41:26;99891.53;;;1.78;83.26
19795;BME280;10057;59.402;17.866;2022-12-29T01:43:56;99882.78;;;1.79;83.63
19795;BME280;10057;59.402;17.866;2022-12-29T01:46:34;99878.47;;;1.77;83.59
19795;BME280;10057;59.402;17.866;2022-12-29T01:49:05;99875.84;;;1.78;83.73
19795;BME280;10057;59.402;17.866;2022-12-29T01:51:44;99870.59;;;1.78;83.67
19795;BME280;10057;59.402;17.866;2022-12-29T01:56:52;99874.91;;;1.82;83.47
19795;BME280;10057;59.402;17.866;2022-12-29T01:59:22;99872.25;;;1.85;83.74
19795;BME280;10057;59.402;17.866;2022-12-29T02:01:51;99867.00;;;1.85;83.62
19795;BME280;10057;59.402;17.866;2022-12-29T02:04:18;99873.06;;;1.87;83.80
19795;BME280;10057;59.402;17.866;2022-12-29T02:06:52;99873.06;;;1.89;84.03
19795;BME280;10057;59.402;17.866;2022-12-29T02:09:20;99866.06;;;1.89;83.88
19795;BME280;10057;59.402;17.866;2022-12-29T02:11:47;99866.03;;;1.91;83.79
19795;BME280;10057;59.402;17.866;2022-12-29T02:14:14;99859.94;;;1.90;83.60
19795;BME280;10057;59.402;17.866;2022-12-29T02:28:43;99838.16;;;1.92;84.02
19795;BME280;10057;59.402;17.866;2022-12-29T02:34:22;99837.25;;;1.93;83.62
19795;BME280;10057;59.402;17.866;2022-12-29T02:39:43;99833.72;;;1.94;83.84
19795;BME280;10057;59.402;17.866;2022-12-29T02:42:24;99827.59;;;1.95;83.91
19795;BME280;10057;59.402;17.866;2022-12-29T02:53:09;99812.81;;;1.94;84.00
19795;BME280;10057;59.402;17.866;2022-12-29T02:55:34;99811.91;;;1.96;83.76
19795;BME280;10057;59.402;17.866;2022-12-29T02:58:21;99804.88;;;1.98;83.94
19795;BME280;10057;59.402;17.866;2022-12-29T03:08:55;99795.28;;;1.99;83.89
19795;BME280;10057;59.402;17.866;2022-12-29T03:11:33;99806.56;;;2.01;84.25
19795;BME280;10057;59.402;17.866;2022-12-29T03:14:32;99803.09;;;2.02;84.19
19795;BME280;10057;59.402;17.866;2022-12-29T03:17:30;99804.81;;;2.03;84.21
19795;BME280;10057;59.402;17.866;2022-12-29T03:20:04;99808.25;;;2.05;84.29
19795;BME280;10057;59.402;17.866;2022-12-29T03:22:37;99803.00;;;2.05;84.25
19795;BME280;10057;59.402;17.866;2022-12-29T03:27:57;99794.28;;;2.06;83.79
19795;BME280;10057;59.402;17.866;2022-12-29T03:30:28;99787.25;;;2.09;83.99
19795;BME280;10057;59.402;17.866;2022-12-29T03:32:59;99780.28;;;2.08;84.12
19795;BME280;10057;59.402;17.866;2022-12-29T03:35:30;99782.88;;;2.10;84.37
19795;BME280;10057;59.402;17.866;2022-12-29T03:38:10;99778.50;;;2.12;84.46
19795;BME280;10057;59.402;17.866;2022-12-29T03:40:46;99781.06;;;2.13;84.33
19795;BME280;10057;59.402;17.866;2022-12-29T03:43:15;99769.69;;;2.16;84.31
19795;BME280;10057;59.402;17.866;2022-12-29T03:45:43;99768.75;;;2.19;84.07
19795;BME280;10057;59.402;17.866;2022-12-29T03:48:10;99763.50;;;2.20;84.44
19795;BME280;10057;59.402;17.866;2022-12-29T03:50:37;99759.94;;;2.24;84.46
19795;BME280;10057;59.402;17.866;2022-12-29T03:53:04;99749.41;;;2.27;84.33
19795;BME280;10057;59.402;17.866;2022-12-29T03:55:30;99744.97;;;2.31;84.35
19795;BME280;10057;59.402;17.866;2022-12-29T03:57:57;99730.94;;;2.35;84.52
19795;BME280;10057;59.402;17.866;2022-12-29T04:00:24;99728.31;;;2.36;84.61
19795;BME280;10057;59.402;17.866;2022-12-29T04:02:51;99726.44;;;2.42;84.32
19795;BME280;10057;59.402;17.866;2022-12-29T04:05:18;99721.16;;;2.45;84.69
19795;BME280;10057;59.402;17.866;2022-12-29T04:07:44;99714.94;;;2.49;84.68
19795;BME280;10057;59.402;17.866;2022-12-29T04:10:11;99715.75;;;2.52;84.65
19795;BME280;10057;59.402;17.866;2022-12-29T04:12:39;99719.16;;;2.56;84.23
19795;BME280;10057;59.402;17.866;2022-12-29T04:15:09;99717.31;;;2.61;84.57
19795;BME280;10057;59.402;17.866;2022-12-29T04:17:35;99714.66;;;2.64;84.70
19795;BME280;10057;59.402;17.866;2022-12-29T04:20:03;99711.91;;;2.70;84.62
19795;BME280;10057;59.402;17.866;2022-12-29T04:22:49;99719.66;;;2.73;84.70
19795;BME280;10057;59.402;17.866;2022-12-29T04:25:16;99716.97;;;2.76;84.36
19795;BME280;10057;59.402;17.866;2022-12-29T04:27:43;99720.41;;;2.80;84.44
19795;BME280;10057;59.402;17.866;2022-12-29T04:30:10;99704.66;;;2.81;84.37
19795;BME280;10057;59.402;17.866;2022-12-29T04:32:37;99704.59;;;2.84;84.82
19795;BME280;10057;59.402;17.866;2022-12-29T04:35:04;99702.78;;;2.87;84.64
19795;BME280;10057;59.402;17.866;2022-12-29T04:37:32;99697.56;;;2.87;84.41
19795;BME280;10057;59.402;17.866;2022-12-29T04:39:59;99692.25;;;2.90;84.78
19795;BME280;10057;59.402;17.866;2022-12-29T04:42:26;99694.00;;;2.91;84.79
19795;BME280;10057;59.402;17.866;2022-12-29T04:44:52;99689.56;;;2.93;84.77
19795;BME280;10057;59.402;17.866;2022-12-29T04:47:19;99679.00;;;2.96;84.75
19795;BME280;10057;59.402;17.866;2022-12-29T04:49:46;99685.94;;;2.98;84.68
19795;BME280;10057;59.402;17.866;2022-12-29T04:52:12;99676.31;;;2.99;84.95
19795;BME280;10057;59.402;17.866;2022-12-29T04:54:39;99671.09;;;2.99;84.73
19795;BME280;10057;59.402;17.866;2022-12-29T04:57:06;99672.78;;;3.01;85.02
19795;BME280;10057;59.402;17.866;2022-12-29T04:59:33;99674.44;;;3.04;84.99
19795;BME280;10057;59.402;17.866;2022-12-29T05:01:59;99665.72;;;3.05;85.08
19795;BME280;10057;59.402;17.866;2022-12-29T05:04:26;99664.75;;;3.07;85.02
19795;BME280;10057;59.402;17.866;2022-12-29T05:06:53;99660.34;;;3.09;84.88
19795;BME280;10057;59.402;17.866;2022-12-29T05:09:20;99655.03;;;3.13;84.99
19795;BME280;10057;59.402;17.866;2022-12-29T05:11:46;99657.66;;;3.13;84.82
19795;BME280;10057;59.402;17.866;2022-12-29T05:14:13;99649.75;;;3.14;84.94
19795;BME280;10057;59.402;17.866;2022-12-29T05:16:40;99646.25;;;3.15;85.07
19795;BME280;10057;59.402;17.866;2022-12-29T05:19:07;99651.44;;;3.17;84.72
19795;BME280;10057;59.402;17.866;2022-12-29T05:21:33;99648.78;;;3.18;85.00
19795;BME280;10057;59.402;17.866;2022-12-29T05:24:00;99640.88;;;3.20;84.91
19795;BME280;10057;59.402;17.866;2022-12-29T05:26:27;99644.34;;;3.22;84.88
19795;BME280;10057;59.402;17.866;2022-12-29T05:28:53;99640.75;;;3.24;85.13
19795;BME280;10057;59.402;17.866;2022-12-29T05:31:20;99640.75;;;3.26;84.95
19795;BME280;10057;59.402;17.866;2022-12-29T05:33:47;99638.97;;;3.26;85.16
19795;BME280;10057;59.402;17.866;2022-12-29T05:36:14;99635.44;;;3.27;84.88
19795;BME280;10057;59.402;17.866;2022-12-29T05:38:41;99636.28;;;3.29;85.36
19795;BME280;10057;59.402;17.866;2022-12-29T05:41:07;99632.75;;;3.30;85.02
19795;BME280;10057;59.402;17.866;2022-12-29T05:43:34;99627.50;;;3.30;85.30
19795;BME280;10057;59.402;17.866;2022-12-29T05:46:01;99619.63;;;3.32;84.98
19795;BME280;10057;59.402;17.866;2022-12-29T05:48:29;99627.50;;;3.32;85.22
19795;BME280;10057;59.402;17.866;2022-12-29T05:51:03;99616.94;;;3.33;85.36
19795;BME280;10057;59.402;17.866;2022-12-29T05:53:29;99619.53;;;3.35;85.17
19795;BME280;10057;59.402;17.866;2022-12-29T05:55:56;99614.25;;;3.37;85.39
19795;BME280;10057;59.402;17.866;2022-12-29T05:58:23;99605.47;;;3.38;85.34
19795;BME280;10057;59.402;17.866;2022-12-29T06:00:50;99607.22;;;3.39;85.10
19795;BME280;10057;59.402;17.866;2022-12-29T06:03:17;99604.50;;;3.42;85.47
19795;BME280;10057;59.402;17.866;2022-12-29T06:05:45;99608.00;;;3.42;85.42
19795;BME280;10057;59.402;17.866;2022-12-29T06:08:12;99606.16;;;3.46;85.29
19795;BME280;10057;59.402;17.866;2022-12-29T06:10:39;99598.28;;;3.46;85.32
19795;BME280;10057;59.402;17.866;2022-12-29T06:13:06;99587.81;;;3.46;85.33
19795;BME280;10057;59.402;17.866;2022-12-29T06:15:33;99589.47;;;3.48;85.52
19795;BME280;10057;59.402;17.866;2022-12-29T06:18:00;99592.97;;;3.49;85.42
19795;BME280;10057;59.402;17.866;2022-12-29T06:20:27;99584.19;;;3.50;85.44
19795;BME280;10057;59.402;17.866;2022-12-29T06:22:54;99580.66;;;3.51;85.55
19795;BME280;10057;59.402;17.866;2022-12-29T06:25:20;99577.97;;;3.54;85.51
19795;BME280;10057;59.402;17.866;2022-12-29T06:27:47;99576.19;;;3.54;85.40
19795;BME280;10057;59.402;17.866;2022-12-29T06:30:14;99579.66;;;3.55;85.66
19795;BME280;10057;59.402;17.866;2022-12-29T06:32:43;99573.50;;;3.58;85.80
19795;BME280;10057;59.402;17.866;2022-12-29T06:35:09;99579.59;;;3.58;85.47
19795;BME280;10057;59.402;17.866;2022-12-29T06:37:36;99581.28;;;3.61;85.82
19795;BME280;10057;59.402;17.866;2022-12-29T06:40:03;99575.97;;;3.62;85.71
19795;BME280;10057;59.402;17.866;2022-12-29T06:42:30;99558.53;;;3.61;85.77
19795;BME280;10057;59.402;17.866;2022-12-29T06:44:57;99559.34;;;3.63;85.46
19795;BME280;10057;59.402;17.866;2022-12-29T06:47:25;99553.19;;;3.64;85.72
19795;BME280;10057;59.402;17.866;2022-12-29T06:49:52;99563.63;;;3.66;85.60
19795;BME280;10057;59.402;17.866;2022-12-29T06:52:18;99574.03;;;3.69;85.95
19795;BME280;10057;59.402;17.866;2022-12-29T06:54:45;99565.28;;;3.70;85.79
19795;BME280;10057;59.402;17.866;2022-12-29T06:57:12;99569.56;;;3.72;85.77
19795;BME280;10057;59.402;17.866;2022-12-29T06:59:39;99566.06;;;3.73;85.99
19795;BME280;10057;59.402;17.866;2022-12-29T07:02:06;99557.28;;;3.74;85.90
19795;BME280;10057;59.402;17.866;2022-12-29T07:04:33;99558.13;;;3.76;86.18
19795;BME280;10057;59.402;17.866;2022-12-29T07:06:59;99548.41;;;3.78;85.88
19795;BME280;10057;59.402;17.866;2022-12-29T07:09:26;99548.41;;;3.78;86.04
19795;BME280;10057;59.402;17.866;2022-12-29T07:11:53;99541.38;;;3.80;86.05
19795;BME280;10057;59.402;17.866;2022-12-29T07:14:20;99543.09;;;3.82;85.91
19795;BME280;10057;59.402;17.866;2022-12-29T07:16:46;99547.44;;;3.83;86.04
19795;BME280;10057;59.402;17.866;2022-12-29T07:19:13;99538.66;;;3.84;86.29
19795;BME280;10057;59.402;17.866;2022-12-29T07:21:40;99536.06;;;3.84;85.90
19795;BME280;10057;59.402;17.866;2022-12-29T07:24:12;99528.97;;;3.86;86.14
19795;BME280;10057;59.402;17.866;2022-12-29T07:26:39;99525.47;;;3.87;86.31
19795;BME280;10057;59.402;17.866;2022-12-29T07:29:06;99527.19;;;3.88;86.20
19795;BME280;10057;59.402;17.866;2022-12-29T07:31:33;99523.63;;;3.89;86.42
19795;BME280;10057;59.402;17.866;2022-12-29T07:33:59;99524.50;;;3.89;86.51
19795;BME280;10057;59.402;17.866;2022-12-29T07:36:26;99504.41;;;3.90;86.17
19795;BME280;10057;59.402;17.866;2022-12-29T07:38:59;99505.19;;;3.92;86.17
19795;BME280;10057;59.402;17.866;2022-12-29T07:41:26;99499.94;;;3.92;86.37
19795;BME280;10057;59.402;17.866;2022-12-29T07:43:53;99499.00;;;3.94;86.30
19795;BME280;10057;59.402;17.866;2022-12-29T07:46:19;99489.34;;;3.95;86.28
19795;BME280;10057;59.402;17.866;2022-12-29T07:49:06;99484.94;;;3.97;86.56
19795;BME280;10057;59.402;17.866;2022-12-29T07:51:33;99484.88;;;3.98;86.35
19795;BME280;10057;59.402;17.866;2022-12-29T07:54:00;99484.81;;;4.00;86.49
19795;BME280;10057;59.402;17.866;2022-12-29T07:56:27;99486.56;;;4.01;86.65
19795;BME280;10057;59.402;17.866;2022-12-29T07:58:54;99479.47;;;4.03;86.39
19795;BME280;10057;59.402;17.866;2022-12-29T08:01:21;99472.50;;;4.03;86.53
19795;BME280;10057;59.402;17.866;2022-12-29T08:03:49;99468.94;;;4.04;86.63
19795;BME280;10057;59.402;17.866;2022-12-29T08:06:22;99466.31;;;4.04;86.57
19795;BME280;10057;59.402;17.866;2022-12-29T08:08:49;99465.38;;;4.07;86.73
19795;BME280;10057;59.402;17.866;2022-12-29T08:11:16;99453.97;;;4.08;86.69
19795;BME280;10057;59.402;17.866;2022-12-29T08:13:42;99459.22;;;4.08;86.41
19795;BME280;10057;59.402;17.866;2022-12-29T08:16:09;99456.59;;;4.08;86.53
19795;BME280;10057;59.402;17.866;2022-12-29T08:18:36;99460.00;;;4.10;86.77
19795;BME280;10057;59.402;17.866;2022-12-29T08:21:03;99458.28;;;4.09;86.79
19795;BME280;10057;59.402;17.866;2022-12-29T08:23:30;99445.19;;;4.09;86.93
19795;BME280;10057;59.402;17.866;2022-12-29T08:26:02;99448.66;;;4.10;86.70
19795;BME280;10057;59.402;17.866;2022-12-29T08:28:30;99449.50;;;4.10;86.73
19795;BME280;10057;59.402;17.866;2022-12-29T08:30:58;99446.88;;;4.10;86.65
19795;BME280;10057;59.402;17.866;2022-12-29T08:33:26;99449.41;;;4.13;86.88
19795;BME280;10057;59.402;17.866;2022-12-29T08:35:59;99440.69;;;4.13;87.13
19795;BME280;10057;59.402;17.866;2022-12-29T08:38:27;99443.28;;;4.14;87.25
19795;BME280;10057;59.402;17.866;2022-12-29T08:40:56;99443.28;;;4.14;86.82
19795;BME280;10057;59.402;17.866;2022-12-29T08:43:23;99438.91;;;4.13;86.97
19795;BME280;10057;59.402;17.866;2022-12-29T08:45:50;99451.16;;;4.14;87.05
19795;BME280;10057;59.402;17.866;2022-12-29T08:48:17;99443.28;;;4.14;86.98
19795;BME280;10057;59.402;17.866;2022-12-29T08:50:46;99442.38;;;4.15;86.80
19795;BME280;10057;59.402;17.866;2022-12-29T08:53:21;99431.88;;;4.15;87.08
19795;BME280;10057;59.402;17.866;2022-12-29T08:55:55;99433.56;;;4.16;87.14
19795;BME280;10057;59.402;17.866;2022-12-29T08:58:30;99423.06;;;4.16;87.35
19795;BME280;10057;59.402;17.866;2022-12-29T09:00:57;99416.97;;;4.16;86.97
19795;BME280;10057;59.402;17.866;2022-12-29T09:03:26;99411.72;;;4.16;87.35
19795;BME280;10057;59.402;17.866;2022-12-29T09:06:17;99419.56;;;4.17;86.89
19795;BME280;10057;59.402;17.866;2022-12-29T09:08:44;99399.41;;;4.18;86.97
19795;BME280;10057;59.402;17.866;2022-12-29T09:11:13;99397.66;;;4.18;87.37
19795;BME280;10057;59.402;17.866;2022-12-29T09:13:41;99388.91;;;4.18;86.92
19795;BME280;10057;59.402;17.866;2022-12-29T09:16:08;99374.03;;;4.18;87.33
19795;BME280;10057;59.402;17.866;2022-12-29T09:18:35;99370.47;;;4.19;87.31
19795;BME280;10057;59.402;17.866;2022-12-29T09:21:04;99369.53;;;4.22;87.43
19795;BME280;10057;59.402;17.866;2022-12-29T09:23:34;99364.28;;;4.22;87.39
19795;BME280;10057;59.402;17.866;2022-12-29T09:26:01;99362.50;;;4.22;87.64
19795;BME280;10057;59.402;17.866;2022-12-29T09:28:29;99353.69;;;4.25;87.59
19795;BME280;10057;59.402;17.866;2022-12-29T09:30:59;99362.34;;;4.27;87.45
19795;BME280;10057;59.402;17.866;2022-12-29T09:33:26;99362.31;;;4.28;87.62
19795;BME280;10057;59.402;17.866;2022-12-29T09:35:58;99350.03;;;4.29;87.46
19795;BME280;10057;59.402;17.866;2022-12-29T09:38:26;99342.97;;;4.31;87.62
19795;BME280;10057;59.402;17.866;2022-12-29T09:41:15;99337.66;;;4.33;87.60
19795;BME280;10057;59.402;17.866;2022-12-29T09:46:48;99323.50;;;4.37;87.38
19795;BME280;10057;59.402;17.866;2022-12-29T09:51:56;99312.13;;;4.38;87.28
19795;BME280;10057;59.402;17.866;2022-12-29T09:54:45;99305.88;;;4.40;87.65
19795;BME280;10057;59.402;17.866;2022-12-29T09:57:34;99306.63;;;4.44;87.57
19795;BME280;10057;59.402;17.866;2022-12-29T10:00:13;99297.78;;;4.46;87.81
19795;BME280;10057;59.402;17.866;2022-12-29T10:02:43;99296.88;;;4.47;87.70
19795;BME280;10057;59.402;17.866;2022-12-29T10:11:05;99287.00;;;4.54;87.73
19795;BME280;10057;59.402;17.866;2022-12-29T10:13:48;99275.56;;;4.57;87.85
19795;BME280;10057;59.402;17.866;2022-12-29T10:24:56;99259.47;;;4.66;87.88
19795;BME280;10057;59.402;17.866;2022-12-29T10:27:31;99251.53;;;4.67;87.93
19795;BME280;10057;59.402;17.866;2022-12-29T10:30:01;99244.44;;;4.69;87.54
19795;BME280;10057;59.402;17.866;2022-12-29T10:32:38;99238.28;;;4.70;87.54
19795;BME280;10057;59.402;17.866;2022-12-29T10:35:19;99234.69;;;4.73;88.00
19795;BME280;10057;59.402;17.866;2022-12-29T10:40:36;99229.31;;;4.76;87.62
19795;BME280;10057;59.402;17.866;2022-12-29T10:43:33;99223.13;;;4.77;87.59
19795;BME280;10057;59.402;17.866;2022-12-29T10:46:11;99219.59;;;4.78;87.83
19795;BME280;10057;59.402;17.866;2022-12-29T10:48:39;99216.94;;;4.80;88.09
19795;BME280;10057;59.402;17.866;2022-12-29T10:51:07;99211.59;;;4.81;87.72
19795;BME280;10057;59.402;17.866;2022-12-29T10:53:38;99201.91;;;4.83;87.82
19795;BME280;10057;59.402;17.866;2022-12-29T10:56:32;99197.41;;;4.85;87.73
19795;BME280;10057;59.402;17.866;2022-12-29T10:59:12;99198.22;;;4.87;88.42
19795;BME280;10057;59.402;17.866;2022-12-29T11:01:55;99194.63;;;4.90;87.64
19795;BME280;10057;59.402;17.866;2022-12-29T11:07:22;99174.41;;;4.92;87.87
19795;BME280;10057;59.402;17.866;2022-12-29T11:09:53;99175.19;;;4.94;87.97
19795;BME280;10057;59.402;17.866;2022-12-29T11:12:30;99181.19;;;4.97;87.83
19795;BME280;10057;59.402;17.866;2022-12-29T11:17:50;99169.72;;;5.00;88.18
19795;BME280;10057;59.402;17.866;2022-12-29T11:22:53;99169.53;;;5.05;87.81
19795;BME280;10057;59.402;17.866;2022-12-29T11:25:20;99163.28;;;5.07;87.98
19795;BME280;10057;59.402;17.866;2022-12-29T11:27:59;99143.94;;;5.10;88.30
19795;BME280;10057;59.402;17.866;2022-12-29T11:30:31;99140.28;;;5.12;88.03
19795;BME280;10057;59.402;17.866;2022-12-29T11:33:02;99137.53;;;5.15;88.43
19795;BME280;10057;59.402;17.866;2022-12-29T11:35:36;99136.66;;;5.16;87.90
19795;BME280;10057;59.402;17.866;2022-12-29T11:38:04;99133.94;;;5.18;88.26
19795;BME280;10057;59.402;17.866;2022-12-29T11:40:31;99118.09;;;5.19;88.22
19795;BME280;10057;59.402;17.866;2022-12-29T11:43:02;99103.22;;;5.20;87.96
19795;BME280;10057;59.402;17.866;2022-12-29T11:45:33;99107.44;;;5.22;88.55
19795;BME280;10057;59.402;17.866;2022-12-29T11:48:08;99095.97;;;5.25;88.13
19795;BME280;10057;59.402;17.866;2022-12-29T11:50:39;99090.66;;;5.27;88.83
19795;BME280;10057;59.402;17.866;2022-12-29T11:53:24;99101.09;;;5.28;88.01
19795;BME280;10057;59.402;17.866;2022-12-29T11:55:57;99090.50;;;5.30;88.83
19795;BME280;10057;59.402;17.866;2022-12-29T11:58:30;99070.41;;;5.29;88.39
19795;BME280;10057;59.402;17.866;2022-12-29T12:01:12;99068.56;;;5.31;88.57
19795;BME280;10057;59.402;17.866;2022-12-29T12:06:23;99054.50;;;5.32;89.09
19795;BME280;10057;59.402;17.866;2022-12-29T12:09:00;99054.38;;;5.35;88.73
19795;BME280;10057;59.402;17.866;2022-12-29T12:11:32;99056.06;;;5.36;88.80
19795;BME280;10057;59.402;17.866;2022-12-29T12:14:11;99063.06;;;5.37;88.54
19795;BME280;10057;59.402;17.866;2022-12-29T12:17:02;99055.94;;;5.39;88.28
19795;BME280;10057;59.402;17.866;2022-12-29T12:22:46;99057.63;;;5.40;88.55
19795;BME280;10057;59.402;17.866;2022-12-29T12:25:43;99060.28;;;5.40;88.65
19795;BME280;10057;59.402;17.866;2022-12-29T12:28:21;99041.88;;;5.40;88.80
19795;BME280;10057;59.402;17.866;2022-12-29T12:31:01;99043.66;;;5.39;88.81
19795;BME280;10057;59.402;17.866;2022-12-29T12:33:36;99036.69;;;5.38;88.45
19795;BME280;10057;59.402;17.866;2022-12-29T12:36:30;99036.56;;;5.41;88.85
19795;BME280;10057;59.402;17.866;2022-12-29T12:44:03;99041.59;;;5.46;88.64
19795;BME280;10057;59.402;17.866;2022-12-29T12:55:06;99036.22;;;5.49;88.60
19795;BME280;10057;59.402;17.866;2022-12-29T12:58:09;99027.41;;;5.50;89.07
19795;BME280;10057;59.402;17.866;2022-12-29T13:01:33;99012.50;;;5.51;89.12
19795;BME280;10057;59.402;17.866;2022-12-29T13:06:58;99008.97;;;5.50;89.06
19795;BME280;10057;59.402;17.866;2022-12-29T13:09:50;99009.88;;;5.51;88.51
19795;BME280;10057;59.402;17.866;2022-12-29T13:13:10;99002.81;;;5.51;88.52
19795;BME280;10057;59.402;17.866;2022-12-29T13:19:24;98995.84;;;5.50;88.45
19795;BME280;10057;59.402;17.866;2022-12-29T13:24:12;98987.94;;;5.50;88.71
19795;BME280;10057;59.402;17.866;2022-12-29T13:27:05;98978.31;;;5.51;89.22
19795;BME280;10057;59.402;17.866;2022-12-29T13:32:20;98979.91;;;5.53;88.97
19795;BME280;10057;59.402;17.866;2022-12-29T13:37:38;98978.94;;;5.56;89.17
19795;BME280;10057;59.402;17.866;2022-12-29T13:40:16;98969.25;;;5.56;89.13
19795;BME280;10057;59.402;17.866;2022-12-29T13:42:44;98972.75;;;5.57;88.97
19795;BME280;10057;59.402;17.866;2022-12-29T13:45:24;98965.72;;;5.57;89.09
19795;BME280;10057;59.402;17.866;2022-12-29T13:48:06;98966.59;;;5.58;88.78
19795;BME280;10057;59.402;17.866;2022-12-29T13:50:38;98959.47;;;5.60;89.19
19795;BME280;10057;59.402;17.866;2022-12-29T13:53:26;98960.31;;;5.60;89.30
19795;BME280;10057;59.402;17.866;2022-12-29T13:56:15;98963.88;;;5.59;88.98
19795;BME280;10057;59.402;17.866;2022-12-29T13:59:23;98965.53;;;5.62;88.97
19795;BME280;10057;59.402;17.866;2022-12-29T14:04:58;98954.91;;;5.63;89.62
19795;BME280;10057;59.402;17.866;2022-12-29T14:07:25;98952.28;;;5.63;89.04
19795;BME280;10057;59.402;17.866;2022-12-29T14:09:57;98947.88;;;5.64;88.93
19795;BME280;10057;59.402;17.866;2022-12-29T14:15:22;98937.28;;;5.65;89.57
19795;BME280;10057;59.402;17.866;2022-12-29T14:18:03;98944.25;;;5.66;89.12
19795;BME280;10057;59.402;17.866;2022-12-29T14:20:31;98932.78;;;5.67;89.49
19795;BME280;10057;59.402;17.866;2022-12-29T14:31:03;98926.50;;;5.72;89.45
19795;BME280;10057;59.402;17.866;2022-12-29T14:33:33;98915.97;;;5.72;89.43
19795;BME280;10057;59.402;17.866;2022-12-29T14:36:21;98921.22;;;5.72;89.56
19795;BME280;10057;59.402;17.866;2022-12-29T14:38:51;98922.94;;;5.73;88.97
19795;BME280;10057;59.402;17.866;2022-12-29T14:41:26;98919.38;;;5.74;89.50
19795;BME280;10057;59.402;17.866;2022-12-29T14:43:57;98917.66;;;5.73;89.15
19795;BME280;10057;59.402;17.866;2022-12-29T14:46:25;98913.19;;;5.75;89.14
19795;BME280;10057;59.402;17.866;2022-12-29T14:49:16;98907.94;;;5.75;89.01
19795;BME280;10057;59.402;17.866;2022-12-29T14:51:44;98913.97;;;5.77;89.22
19795;BME280;10057;59.402;17.866;2022-12-29T14:57:08;98911.28;;;5.78;89.60
19795;BME280;10057;59.402;17.866;2022-12-29T14:59:36;98912.13;;;5.79;88.96
19795;BME280;10057;59.402;17.866;2022-12-29T15:02:13;98913.03;;;5.78;89.33
19795;BME280;10057;59.402;17.866;2022-12-29T15:04:42;98914.75;;;5.79;89.53
19795;BME280;10057;59.402;17.866;2022-12-29T15:07:10;98916.41;;;5.81;89.10
19795;BME280;10057;59.402;17.866;2022-12-29T15:09:43;98908.56;;;5.80;89.05
19795;BME280;10057;59.402;17.866;2022-12-29T15:12:19;98915.53;;;5.81;89.69
19795;BME280;10057;59.402;17.866;2022-12-29T15:14:55;98903.25;;;5.81;89.44
19795;BME280;10057;59.402;17.866;2022-12-29T15:17:27;98901.47;;;5.82;89.41
19795;BME280;10057;59.402;17.866;2022-12-29T15:19:56;98901.47;;;5.82;89.72
19795;BME280;10057;59.402;17.866;2022-12-29T15:22:24;98902.31;;;5.82;89.53
19795;BME280;10057;59.402;17.866;2022-12-29T15:24:52;98898.75;;;5.83;89.73
19795;BME280;10057;59.402;17.866;2022-12-29T15:27:21;98911.84;;;5.85;89.83